Time;durP1;ratioP1;P1;durP2;ratioP2;P2;SDS_P1;SDS_P2;PMS_P1;PMS_P2;Temp;Humidity;BMP_temperature;BMP_pressure;BME280_temperature;BME280_humidity;BME280_pressure;Samples;Min_cycle;Max_cycle;Signal;HPM_P1;HPM_P2
2021/07/21 00:01:10;;;;;;;;;15.75;14.00;;;;;27.08;45.30;101664.69;5008423;28;50923;-46
2021/07/21 00:03:35;;;;;;;;;15.50;14.25;;;;;27.07;45.66;101663.00;5016410;28;51135;-46
2021/07/21 00:06:00;;;;;;;;;18.50;14.25;;;;;27.06;45.63;101655.75;5018266;28;50902;-47
2021/07/21 00:08:26;;;;;;;;;22.75;18.00;;;;;27.05;45.24;101648.50;5014701;28;51936;-47
2021/07/21 00:13:26;;;;;;;;;14.00;13.25;;;;;27.03;45.29;101654.31;5000440;28;51056;-46
2021/07/21 00:13:37;;;;;;;;;21.50;17.50;;;;;27.03;45.19;101657.09;5017214;28;51413;-45
2021/07/21 00:20:58;;;;;;;;;17.25;15.25;;;;;27.01;45.56;101650.91;5003638;28;51213;-46
2021/07/21 00:23:23;;;;;;;;;13.25;13.25;;;;;27.00;44.96;101640.91;5016999;28;51354;-48
2021/07/21 00:25:50;;;;;;;;;17.00;15.25;;;;;26.99;45.27;101644.78;5018245;28;51004;-44
2021/07/21 00:28:16;;;;;;;;;20.00;17.50;;;;;26.99;45.74;101650.34;5010133;28;50989;-46
2021/07/21 00:30:42;;;;;;;;;17.00;17.00;;;;;26.99;45.79;101655.03;4998185;28;51370;-50
2021/07/21 00:33:08;;;;;;;;;13.00;12.75;;;;;26.99;45.28;101655.03;5003047;28;51177;-45
2021/07/21 00:35:34;;;;;;;;;22.25;20.00;;;;;26.98;45.66;101661.66;5015284;28;51165;-48
2021/07/21 00:37:59;;;;;;;;;13.25;12.00;;;;;26.98;45.10;101668.06;5003234;28;50916;-51
2021/07/21 00:40:25;;;;;;;;;16.75;15.00;;;;;26.99;45.67;101663.34;5001809;28;50973;-48
2021/07/21 00:42:50;;;;;;;;;17.75;15.50;;;;;26.98;45.53;101668.06;4999410;28;50958;-46
2021/07/21 00:45:15;;;;;;;;;22.25;16.00;;;;;26.97;45.19;101668.31;4998240;28;50923;-50
2021/07/21 00:47:41;;;;;;;;;15.75;15.75;;;;;26.97;45.39;101669.16;5004114;28;52115;-46
2021/07/21 00:50:08;;;;;;;;;21.75;18.25;;;;;26.97;45.34;101660.00;5016195;28;52012;-50
2021/07/21 00:52:39;;;;;;;;;15.25;15.25;;;;;26.96;45.76;101656.38;4999749;28;51127;-47
2021/07/21 00:55:07;;;;;;;;;19.25;16.75;;;;;26.96;45.64;101663.88;5017189;28;50949;-48
2021/07/21 00:57:33;;;;;;;;;18.50;17.50;;;;;26.96;45.27;101661.09;5007731;28;51266;-46
2021/07/21 00:59:58;;;;;;;;;19.50;16.25;;;;;26.95;45.70;101660.25;4998021;28;50846;-48
2021/07/21 01:02:25;;;;;;;;;23.00;21.75;;;;;26.95;45.73;101656.63;5013913;28;51078;-47
2021/07/21 01:04:50;;;;;;;;;21.00;18.75;;;;;26.94;45.78;101666.91;5006050;28;51227;-46
2021/07/21 01:07:15;;;;;;;;;17.00;16.50;;;;;26.94;45.67;101663.28;5003846;28;51056;-47
2021/07/21 01:09:44;;;;;;;;;18.00;16.75;;;;;26.94;45.20;101669.66;5016421;28;50954;-46
2021/07/21 01:12:16;;;;;;;;;21.00;16.75;;;;;26.93;45.50;101668.00;5018119;28;51129;-47
2021/07/21 01:14:59;;;;;;;;;19.00;16.00;;;;;26.93;45.61;101668.00;4997789;28;51025;-46
2021/07/21 01:17:30;;;;;;;;;18.00;15.75;;;;;26.93;46.04;101667.16;5008675;28;52001;-47
2021/07/21 01:20:18;;;;;;;;;21.25;17.00;;;;;26.92;45.86;101663.53;5016682;28;51606;-46
2021/07/21 01:22:47;;;;;;;;;18.50;16.50;;;;;26.93;45.70;101664.38;5015957;28;51135;-47
2021/07/21 01:25:40;;;;;;;;;22.50;15.00;;;;;26.92;45.37;101668.25;5010388;28;51291;-47
2021/07/21 01:28:06;;;;;;;;;17.75;15.50;;;;;26.92;45.82;101666.31;5000067;28;52703;-46
2021/07/21 01:30:37;;;;;;;;;16.25;16.25;;;;;26.91;45.54;101663.78;4999571;28;51213;-46
2021/07/21 01:33:12;;;;;;;;;15.75;15.25;;;;;26.91;45.62;101666.56;5003728;28;51254;-47
2021/07/21 01:35:53;;;;;;;;;21.50;16.00;;;;;26.91;45.40;101666.56;4997652;28;51222;-47
2021/07/21 01:38:23;;;;;;;;;20.25;18.75;;;;;26.91;45.71;101661.84;5001790;28;51981;-47
2021/07/21 01:40:57;;;;;;;;;19.50;17.75;;;;;26.90;45.93;101660.16;5013429;28;51165;-47
2021/07/21 01:43:27;;;;;;;;;17.75;15.00;;;;;26.89;45.41;101661.25;4999265;28;51078;-46
2021/07/21 01:45:54;;;;;;;;;28.50;21.50;;;;;26.89;45.77;101661.25;5010801;28;50902;-49
2021/07/21 01:48:22;;;;;;;;;21.50;17.75;;;;;26.89;45.54;101668.75;5004889;28;50999;-46
2021/07/21 01:50:50;;;;;;;;;19.25;15.00;;;;;26.89;45.71;101671.53;5011372;28;51105;-46
2021/07/21 01:53:17;;;;;;;;;19.50;16.50;;;;;26.88;45.49;101667.88;5015212;28;51255;-46
2021/07/21 01:55:44;;;;;;;;;21.75;20.00;;;;;26.88;45.96;101676.19;5007931;28;50990;-46
2021/07/21 01:58:11;;;;;;;;;18.50;17.50;;;;;26.88;45.33;101678.13;5016233;28;52186;-46
2021/07/21 02:00:39;;;;;;;;;18.75;15.75;;;;;26.87;45.82;101671.75;5015652;28;51190;-49
2021/07/21 02:03:07;;;;;;;;;20.50;19.00;;;;;26.88;45.54;101683.69;5016417;28;51195;-50
2021/07/21 02:05:33;;;;;;;;;24.00;20.00;;;;;26.87;45.46;101671.75;5008778;28;51122;-47
2021/07/21 02:08:01;;;;;;;;;24.00;17.75;;;;;26.87;45.44;101679.22;5006209;28;51733;-47
2021/07/21 02:10:30;;;;;;;;;22.00;17.75;;;;;26.86;45.69;101672.81;4996222;28;51458;-51
2021/07/21 02:13:01;;;;;;;;;19.50;17.00;;;;;26.86;46.11;101681.16;5009388;28;51011;-48
2021/07/21 02:15:28;;;;;;;;;19.50;17.00;;;;;26.85;45.73;101682.25;5005865;28;51125;-47
2021/07/21 02:17:54;;;;;;;;;22.50;21.50;;;;;26.86;45.92;101683.94;5012407;28;51109;-48
2021/07/21 02:20:24;;;;;;;;;22.25;19.25;;;;;26.85;45.83;101676.69;5009399;28;51064;-47
2021/07/21 02:22:49;;;;;;;;;22.25;18.75;;;;;26.85;45.94;101676.69;5015855;28;51278;-46
2021/07/21 02:25:16;;;;;;;;;22.00;18.00;;;;;26.85;45.53;101676.69;5005550;28;51070;-49
2021/07/21 02:27:41;;;;;;;;;22.25;18.50;;;;;26.85;45.98;101670.31;4997744;28;52019;-48
2021/07/21 02:30:10;;;;;;;;;18.50;16.25;;;;;26.85;45.73;101681.41;5012137;28;51098;-48
2021/07/21 02:32:40;;;;;;;;;23.50;17.75;;;;;26.84;45.76;101688.06;5015145;28;51144;-45
2021/07/21 02:35:06;;;;;;;;;21.75;18.50;;;;;26.84;46.04;101677.78;5016319;28;51185;-47
2021/07/21 02:37:32;;;;;;;;;21.75;18.00;;;;;26.84;45.54;101676.94;5003052;28;51863;-46
2021/07/21 02:39:57;;;;;;;;;17.75;17.50;;;;;26.84;45.77;101671.41;5000099;28;51511;-49
2021/07/21 02:42:22;;;;;;;;;22.00;18.75;;;;;26.83;45.34;101681.66;5000366;28;51375;-47
2021/07/21 02:44:50;;;;;;;;;26.00;20.25;;;;;26.82;45.49;101677.19;5008121;28;51044;-47
2021/07/21 02:47:17;;;;;;;;;19.50;16.50;;;;;26.82;45.70;101679.97;5000916;28;52712;-46
2021/07/21 02:49:45;;;;;;;;;22.50;18.50;;;;;26.82;46.07;101677.19;4999935;28;51359;-46
2021/07/21 02:52:18;;;;;;;;;26.00;19.25;;;;;26.81;45.90;101678.28;5000190;28;51100;-48
2021/07/21 02:54:58;;;;;;;;;20.00;18.75;;;;;26.82;46.04;101691.09;5018497;28;51025;-49
2021/07/21 02:57:38;;;;;;;;;18.75;16.75;;;;;26.80;45.76;101679.38;5018684;28;51813;-51
2021/07/21 03:00:12;;;;;;;;;19.25;19.25;;;;;26.80;45.40;101682.16;5019000;28;50957;-47
2021/07/21 03:02:40;;;;;;;;;19.50;17.75;;;;;26.79;45.58;101680.47;5017084;28;50997;-48
2021/07/21 03:05:09;;;;;;;;;22.50;16.25;;;;;26.80;45.57;101684.09;5000094;28;51191;-49
2021/07/21 03:07:41;;;;;;;;;19.25;18.00;;;;;26.79;46.07;101682.41;5009973;28;51771;-46
2021/07/21 03:10:10;;;;;;;;;19.50;17.00;;;;;26.79;45.50;101686.03;5009971;28;52416;-47
2021/07/21 03:12:39;;;;;;;;;25.75;19.50;;;;;26.77;46.01;101683.47;5013636;28;51017;-47
2021/07/21 03:15:06;;;;;;;;;20.25;19.75;;;;;26.78;46.10;101689.88;5017059;28;51208;-48
2021/07/21 03:17:36;;;;;;;;;18.25;17.25;;;;;26.76;45.90;101687.34;5000492;28;51889;-49
2021/07/21 03:20:03;;;;;;;;;20.00;18.50;;;;;26.76;46.10;101687.34;5011547;28;51113;-49
2021/07/21 03:22:29;;;;;;;;;21.00;17.75;;;;;26.76;46.01;101689.28;5018519;28;51068;-46
2021/07/21 03:24:55;;;;;;;;;22.75;20.50;;;;;26.75;46.00;101691.22;5018583;28;51246;-47
2021/07/21 03:27:21;;;;;;;;;18.25;14.50;;;;;26.76;45.53;101700.41;5018121;28;51896;-47
2021/07/21 03:29:51;;;;;;;;;19.50;17.75;;;;;26.75;45.79;101698.72;5009836;28;51220;-49
2021/07/21 03:32:19;;;;;;;;;22.00;21.00;;;;;26.75;45.64;101704.28;5018785;28;50993;-47
2021/07/21 03:34:46;;;;;;;;;20.50;15.00;;;;;26.74;45.53;101697.03;5006447;28;51213;-49
2021/07/21 03:37:12;;;;;;;;;19.00;18.00;;;;;26.73;45.52;101706.47;4999235;28;52031;-47
2021/07/21 03:39:38;;;;;;;;;21.50;20.00;;;;;26.72;45.97;101710.34;5000387;28;51064;-48
2021/07/21 03:42:05;;;;;;;;;20.00;18.50;;;;;26.72;45.95;101707.56;4999419;28;51110;-49
2021/07/21 03:44:31;;;;;;;;;19.75;19.25;;;;;26.71;45.52;101708.66;4999274;28;51146;-48
2021/07/21 03:46:57;;;;;;;;;23.25;19.25;;;;;26.71;45.98;101697.53;5011352;28;53086;-45
2021/07/21 03:49:24;;;;;;;;;21.75;17.50;;;;;26.70;45.60;101704.19;5002053;28;51141;-48
2021/07/21 03:51:49;;;;;;;;;21.00;18.75;;;;;26.69;45.80;101697.78;4999224;28;52512;-48
2021/07/21 03:54:16;;;;;;;;;21.25;20.25;;;;;26.68;45.34;101696.09;4998358;28;51226;-46
2021/07/21 03:56:44;;;;;;;;;19.00;16.75;;;;;26.68;45.87;101693.31;4998876;28;52683;-47
2021/07/21 03:59:14;;;;;;;;;21.00;16.75;;;;;26.68;45.71;101703.59;5016666;28;51321;-47
2021/07/21 04:01:41;;;;;;;;;22.50;16.00;;;;;26.66;45.33;101695.47;5012315;28;51144;-47
2021/07/21 04:04:08;;;;;;;;;18.50;16.00;;;;;26.66;46.09;101691.84;5014483;28;51194;-46
2021/07/21 04:06:36;;;;;;;;;18.00;16.50;;;;;26.66;45.59;101700.19;5013341;28;51110;-45
2021/07/21 04:09:05;;;;;;;;;17.25;17.00;;;;;26.66;45.41;101714.06;5002029;28;51085;-46
2021/07/21 04:11:33;;;;;;;;;17.50;15.50;;;;;26.65;45.38;101706.81;5013574;28;51231;-44
2021/07/21 04:14:00;;;;;;;;;18.25;15.50;;;;;26.66;45.85;101711.28;5001644;28;50990;-44
2021/07/21 04:16:26;;;;;;;;;19.25;15.50;;;;;26.65;45.71;101709.59;4999532;28;51874;-45
2021/07/21 04:18:53;;;;;;;;;23.75;21.50;;;;;26.64;45.58;101705.97;5011389;28;51167;-46
2021/07/21 04:21:19;;;;;;;;;21.25;18.25;;;;;26.63;45.51;101704.28;5001941;28;50996;-45
2021/07/21 04:23:44;;;;;;;;;21.75;17.50;;;;;26.64;45.94;101710.69;4998862;28;50980;-50
2021/07/21 04:26:10;;;;;;;;;21.00;18.00;;;;;26.63;45.38;101717.34;4999568;28;51661;-46
2021/07/21 04:28:38;;;;;;;;;19.25;18.25;;;;;26.62;45.30;101718.44;4998466;28;51157;-48
2021/07/21 04:31:05;;;;;;;;;20.00;18.00;;;;;26.62;45.34;101716.50;5000600;28;51057;-47
2021/07/21 04:33:32;;;;;;;;;18.00;17.00;;;;;26.62;45.82;101721.22;5018026;28;51785;-46
2021/07/21 04:35:59;;;;;;;;;24.00;22.25;;;;;26.61;45.68;101720.38;5001947;28;51224;-45
2021/07/21 04:38:24;;;;;;;;;20.75;17.00;;;;;26.59;45.70;101725.34;4998778;28;51305;-47
2021/07/21 04:40:53;;;;;;;;;17.75;16.25;;;;;26.59;45.80;101727.28;4999064;28;51520;-46
2021/07/21 04:43:18;;;;;;;;;19.50;18.25;;;;;26.59;45.86;101724.50;5012375;28;50988;-47
2021/07/21 04:45:47;;;;;;;;;20.00;18.25;;;;;26.58;45.80;101729.22;4998898;28;51500;-47
2021/07/21 04:48:14;;;;;;;;;21.00;17.00;;;;;26.59;45.33;101730.88;4998218;28;51394;-47
2021/07/21 04:50:42;;;;;;;;;23.75;20.25;;;;;26.58;45.77;101726.44;4998144;28;51012;-45
2021/07/21 04:53:08;;;;;;;;;21.00;18.75;;;;;26.57;45.68;101727.47;4998323;28;51049;-49
2021/07/21 04:55:33;;;;;;;;;22.75;20.25;;;;;26.56;45.43;101731.34;5000588;28;51138;-45
2021/07/21 04:57:58;;;;;;;;;19.50;19.50;;;;;26.56;45.52;101730.50;5017128;28;50936;-48
2021/07/21 05:00:24;;;;;;;;;21.75;19.75;;;;;26.56;45.85;101738.84;5010235;28;50931;-47
2021/07/21 05:02:49;;;;;;;;;21.75;19.50;;;;;26.55;45.65;101740.78;4998070;28;51011;-46
2021/07/21 05:05:15;;;;;;;;;19.75;17.75;;;;;26.54;45.34;101744.66;5001500;28;51121;-47
2021/07/21 05:07:40;;;;;;;;;18.75;18.00;;;;;26.55;45.46;101746.34;5016827;28;51069;-47
2021/07/21 05:10:06;;;;;;;;;21.50;18.00;;;;;26.54;45.49;101746.59;5016868;28;50985;-46
2021/07/21 05:12:31;;;;;;;;;24.50;17.25;;;;;26.53;45.59;101745.75;5018150;28;51016;-49
2021/07/21 05:14:56;;;;;;;;;20.50;18.50;;;;;26.52;45.52;101748.75;4998434;28;51836;-47
2021/07/21 05:17:22;;;;;;;;;18.25;17.50;;;;;26.53;45.69;101750.44;4997854;28;50987;-47
2021/07/21 05:19:47;;;;;;;;;26.25;18.50;;;;;26.51;45.44;101752.63;4997726;28;50960;-44
2021/07/21 05:22:12;;;;;;;;;22.50;20.50;;;;;26.52;45.58;101762.66;4998020;28;51067;-46
2021/07/21 05:24:38;;;;;;;;;19.75;17.75;;;;;26.51;45.73;101753.47;5005593;28;51078;-46
2021/07/21 05:27:04;;;;;;;;;23.25;21.25;;;;;26.50;45.10;101765.69;5005334;28;51018;-45
2021/07/21 05:29:29;;;;;;;;;23.50;20.25;;;;;26.48;45.47;101764.25;5016921;28;51016;-47
2021/07/21 05:31:55;;;;;;;;;30.75;21.75;;;;;26.45;45.11;101774.72;5001932;28;50980;-46
2021/07/21 05:34:20;;;;;;;;;27.50;20.75;;;;;26.43;45.13;101763.00;5015063;28;51630;-47
2021/07/21 05:36:46;;;;;;;;;22.75;19.75;;;;;26.40;45.52;101769.06;5011634;28;51144;-44
2021/07/21 05:39:11;;;;;;;;;20.75;18.25;;;;;26.39;45.62;101772.91;5008531;28;51644;-46
2021/07/21 05:41:37;;;;;;;;;22.00;19.25;;;;;26.36;45.87;101784.47;5015692;28;51275;-44
2021/07/21 05:44:03;;;;;;;;;21.25;20.75;;;;;26.34;45.79;101772.75;5002674;28;51665;-44
2021/07/21 05:46:29;;;;;;;;;23.50;18.25;;;;;26.33;45.69;101781.31;5003708;28;51098;-46
2021/07/21 05:48:54;;;;;;;;;23.50;20.50;;;;;26.33;45.85;101784.09;5005726;28;51161;-46
2021/07/21 05:51:20;;;;;;;;;21.00;17.75;;;;;26.33;45.54;101775.75;5011024;28;51120;-47
2021/07/21 05:53:45;;;;;;;;;20.25;19.00;;;;;26.31;45.47;101776.00;5000193;28;51836;-46
2021/07/21 05:56:15;;;;;;;;;23.50;19.75;;;;;26.30;45.58;101774.31;5001514;28;50871;-44
2021/07/21 05:58:40;;;;;;;;;21.75;18.50;;;;;26.33;45.66;101789.66;5007637;28;51268;-44
2021/07/21 06:01:06;;;;;;;;;26.75;22.50;;;;;26.31;45.47;101784.34;5004613;28;51333;-46
2021/07/21 06:03:31;;;;;;;;;21.75;19.00;;;;;26.31;45.43;101781.56;5000792;28;51823;-51
2021/07/21 06:05:57;;;;;;;;;22.50;21.00;;;;;26.30;45.80;101779.88;4996995;28;51138;-49
2021/07/21 06:08:22;;;;;;;;;22.50;19.75;;;;;26.30;45.38;101791.00;4993686;28;51126;-47
2021/07/21 06:10:48;;;;;;;;;21.75;18.75;;;;;26.30;46.34;101796.53;5004808;28;50883;-51
2021/07/21 06:13:13;;;;;;;;;23.75;19.75;;;;;26.30;45.98;101801.25;5001641;28;51630;-46
2021/07/21 06:15:39;;;;;;;;;21.00;19.75;;;;;26.30;45.68;101802.09;5011447;28;51205;-49
2021/07/21 06:18:06;;;;;;;;;23.50;19.75;;;;;26.32;46.39;101797.16;5008010;28;51140;-50
2021/07/21 06:20:31;;;;;;;;;26.00;22.25;;;;;26.32;46.03;101804.63;4999655;28;51090;-47
2021/07/21 06:22:57;;;;;;;;;25.25;21.50;;;;;26.32;46.30;101805.47;5002979;28;51632;-48
2021/07/21 06:25:23;;;;;;;;;22.50;20.50;;;;;26.33;45.93;101809.09;5001938;28;50965;-49
2021/07/21 06:27:50;;;;;;;;;26.75;21.75;;;;;26.35;46.01;101813.31;5002151;28;51197;-47
2021/07/21 06:30:16;;;;;;;;;25.25;24.25;;;;;26.33;46.09;101818.28;5004367;28;51127;-47
2021/07/21 06:32:42;;;;;;;;;23.50;20.25;;;;;26.32;45.97;101822.16;5009935;28;51129;-49
2021/07/21 06:35:09;;;;;;;;;22.50;19.00;;;;;26.34;46.04;101824.69;5009402;28;51798;-48
2021/07/21 06:37:34;;;;;;;;;23.50;22.25;;;;;26.34;46.25;101827.44;5003432;28;51186;-48
2021/07/21 06:40:00;;;;;;;;;29.75;23.00;;;;;26.35;46.08;101830.00;5005597;28;51329;-54
2021/07/21 06:42:26;;;;;;;;;26.50;22.75;;;;;26.37;46.13;101833.44;5001747;28;50933;-48
2021/07/21 06:44:52;;;;;;;;;27.75;19.75;;;;;26.39;46.33;101827.63;5004506;28;51313;-48
2021/07/21 06:47:18;;;;;;;;;28.50;18.25;;;;;26.38;45.79;101832.34;5006574;28;51176;-50
2021/07/21 06:49:43;;;;;;;;;24.50;22.25;;;;;26.40;45.90;101830.16;5007046;28;51087;-49
2021/07/21 06:52:08;;;;;;;;;27.50;21.00;;;;;26.41;45.73;101833.78;5003827;28;51732;-47
2021/07/21 06:54:34;;;;;;;;;25.25;19.75;;;;;26.42;46.08;101835.47;5011695;28;51042;-51
2021/07/21 06:56:59;;;;;;;;;26.50;21.75;;;;;26.42;46.05;101835.47;4995405;28;51075;-51
2021/07/21 06:59:28;;;;;;;;;27.75;24.25;;;;;26.43;45.60;101843.56;4998513;28;51109;-50
2021/07/21 07:01:53;;;;;;;;;24.50;22.00;;;;;26.44;45.43;101834.16;5010907;28;52851;-48
2021/07/21 07:04:19;;;;;;;;;27.00;23.25;;;;;26.44;45.04;101842.47;5000165;28;51001;-48
2021/07/21 07:06:44;;;;;;;;;23.00;17.25;;;;;26.45;45.13;101848.88;4996140;28;51347;-46
2021/07/21 07:09:09;;;;;;;;;30.25;26.75;;;;;26.46;44.81;101845.88;4996860;28;51050;-48
2021/07/21 07:11:35;;;;;;;;;29.25;24.75;;;;;26.48;44.82;101847.59;5009398;28;51238;-49
2021/07/21 07:14:00;;;;;;;;;29.25;24.50;;;;;26.49;44.92;101841.78;5012042;28;51220;-46
2021/07/21 07:16:26;;;;;;;;;28.75;22.75;;;;;26.51;44.58;101841.53;5010295;28;50954;-44
2021/07/21 07:18:51;;;;;;;;;30.75;26.00;;;;;26.52;44.22;101841.28;4995477;28;51196;-45
2021/07/21 07:21:16;;;;;;;;;29.25;24.50;;;;;26.55;44.71;101842.75;5001496;28;51868;-48
2021/07/21 07:23:42;;;;;;;;;28.75;23.75;;;;;26.56;44.32;101838.88;5018023;28;51940;-46
2021/07/21 07:26:07;;;;;;;;;27.50;23.00;;;;;26.58;44.50;101842.28;5009493;28;51185;-44
2021/07/21 07:28:32;;;;;;;;;29.00;25.50;;;;;26.60;44.10;101837.34;5009105;28;51376;-44
2021/07/21 07:30:58;;;;;;;;;24.50;23.00;;;;;26.62;44.07;101849.88;4999936;28;51929;-44
2021/07/21 07:33:24;;;;;;;;;29.25;26.00;;;;;26.64;43.63;101842.16;5009625;28;51026;-48
2021/07/21 07:35:50;;;;;;;;;28.00;25.75;;;;;26.67;44.05;101838.88;5015602;28;51831;-46
2021/07/21 07:38:15;;;;;;;;;26.50;24.25;;;;;26.67;43.48;101838.88;5001075;28;51354;-46
2021/07/21 07:40:42;;;;;;;;;25.50;24.50;;;;;26.70;43.51;101841.22;4999009;28;51676;-45
2021/07/21 07:43:08;;;;;;;;;30.25;24.25;;;;;26.73;43.81;101839.88;4998284;28;51034;-45
2021/07/21 07:45:34;;;;;;;;;26.25;23.50;;;;;26.76;43.55;101839.38;4999902;28;51237;-46
2021/07/21 07:47:59;;;;;;;;;31.25;25.50;;;;;26.77;43.74;101835.50;4999700;28;51343;-47
2021/07/21 07:50:25;;;;;;;;;29.25;22.00;;;;;26.80;43.58;101842.53;5002663;28;51796;-46
2021/07/21 07:52:51;;;;;;;;;23.25;21.25;;;;;26.81;43.38;101839.53;4998600;28;51001;-47
2021/07/21 07:55:16;;;;;;;;;27.50;24.75;;;;;26.84;43.73;101840.97;5012794;28;51405;-44
2021/07/21 07:57:42;;;;;;;;;24.75;22.75;;;;;26.85;43.66;101831.53;5015276;28;50972;-47
2021/07/21 08:00:10;;;;;;;;;27.50;25.00;;;;;26.85;43.56;101835.16;4998512;28;51138;-47
2021/07/21 08:02:35;;;;;;;;;27.50;21.50;;;;;26.85;43.73;101835.16;5007101;28;51286;-47
2021/07/21 08:05:00;;;;;;;;;23.25;22.00;;;;;26.85;43.41;101837.09;5009713;28;51150;-45
2021/07/21 08:07:29;;;;;;;;;26.00;22.75;;;;;26.85;43.81;101829.59;5010515;28;51814;-48
2021/07/21 08:09:54;;;;;;;;;29.75;22.75;;;;;26.85;44.06;101835.16;4997854;28;52203;-46
2021/07/21 08:12:20;;;;;;;;;24.00;22.00;;;;;26.86;44.09;101838.78;5006569;28;51113;-48
2021/07/21 08:14:45;;;;;;;;;24.25;20.50;;;;;26.85;44.45;101832.38;5002331;28;51117;-51
2021/07/21 08:17:11;;;;;;;;;29.50;18.75;;;;;26.86;44.15;101836.00;5007062;28;51269;-48
2021/07/21 08:19:39;;;;;;;;;23.00;21.00;;;;;26.86;44.46;101834.06;5013946;28;51707;-45
2021/07/21 08:22:05;;;;;;;;;28.50;24.50;;;;;26.85;44.38;101837.94;5006204;28;51116;-51
2021/07/21 08:24:31;;;;;;;;;26.50;24.75;;;;;26.86;44.37;101839.63;5001595;28;50974;-47
2021/07/21 08:26:57;;;;;;;;;23.75;21.25;;;;;26.86;44.42;101839.63;5008626;28;51654;-47
2021/07/21 08:29:22;;;;;;;;;29.75;25.50;;;;;26.88;44.74;101836.59;5002182;28;51140;-49
2021/07/21 08:31:49;;;;;;;;;32.75;23.25;;;;;26.88;44.84;101844.94;5005488;28;51056;-50
2021/07/21 08:34:15;;;;;;;;;23.75;20.75;;;;;26.86;44.20;101842.41;5003518;28;51443;-47
2021/07/21 08:36:41;;;;;;;;;29.50;23.50;;;;;26.88;44.58;101848.56;5012307;28;50921;-49
2021/07/21 08:39:09;;;;;;;;;21.50;16.50;;;;;26.89;44.48;101841.94;5004210;28;51775;-48
2021/07/21 08:41:36;;;;;;;;;26.75;22.00;;;;;26.89;44.35;101838.31;4999437;28;51322;-47
2021/07/21 08:44:04;;;;;;;;;24.75;20.00;;;;;26.90;44.95;101842.78;5002885;28;51322;-47
2021/07/21 08:46:30;;;;;;;;;23.75;22.75;;;;;26.91;44.80;101841.69;4998921;28;51192;-48
2021/07/21 08:48:56;;;;;;;;;28.50;22.00;;;;;26.91;44.53;101841.69;5002980;28;52234;-48
2021/07/21 08:51:23;;;;;;;;;22.00;21.25;;;;;26.91;45.22;101836.97;5005425;28;51277;-48
2021/07/21 08:53:52;;;;;;;;;24.75;21.50;;;;;26.92;44.81;101824.78;5000388;28;51402;-47
2021/07/21 08:56:19;;;;;;;;;27.50;19.75;;;;;26.94;45.22;101835.66;4997986;28;51268;-49
2021/07/21 08:58:47;;;;;;;;;26.50;23.00;;;;;26.94;44.64;101824.53;5003926;28;51353;-47
2021/07/21 09:01:12;;;;;;;;;24.50;21.25;;;;;26.95;44.63;101827.06;4999826;28;51226;-47
2021/07/21 09:03:40;;;;;;;;;27.00;24.00;;;;;26.96;45.13;101839.88;5004845;28;51083;-45
2021/07/21 09:06:06;;;;;;;;;27.75;22.50;;;;;26.96;44.82;101828.75;5009123;28;51243;-47
2021/07/21 09:08:33;;;;;;;;;26.75;25.25;;;;;26.98;44.54;101832.13;5000875;28;51738;-50
2021/07/21 09:10:59;;;;;;;;;24.50;20.25;;;;;26.99;45.29;101832.97;5005125;28;51426;-50
2021/07/21 09:13:25;;;;;;;;;22.75;18.50;;;;;26.99;44.86;101833.84;5001120;28;51284;-49
2021/07/21 09:15:51;;;;;;;;;23.25;20.25;;;;;27.02;45.21;101843.66;5009105;28;51264;-49
2021/07/21 09:18:18;;;;;;;;;21.50;20.00;;;;;27.02;45.25;101838.94;5004704;28;51878;-51
2021/07/21 09:20:46;;;;;;;;;25.25;23.00;;;;;27.03;45.24;101851.75;5003766;28;51539;-51
2021/07/21 09:23:12;;;;;;;;;21.75;19.75;;;;;27.03;45.28;101837.84;5005383;28;51169;-49
2021/07/21 09:25:39;;;;;;;;;27.75;23.50;;;;;27.06;44.91;101835.66;5004576;28;51324;-52
2021/07/21 09:28:07;;;;;;;;;28.00;21.50;;;;;27.07;44.91;101851.25;5000318;28;51163;-48
2021/07/21 09:30:36;;;;;;;;;25.50;21.00;;;;;27.06;44.71;101844.00;5005257;28;51348;-50
2021/07/21 09:33:05;;;;;;;;;19.75;17.25;;;;;27.08;45.11;101853.78;5003637;28;51140;-50
2021/07/21 09:35:44;;;;;;;;;20.25;18.00;;;;;27.08;44.75;101848.22;4996119;28;51073;-50
2021/07/21 09:38:21;;;;;;;;;22.50;22.00;;;;;27.10;44.56;101839.69;4999186;28;52803;-48
2021/07/21 09:40:53;;;;;;;;;19.25;18.25;;;;;27.10;44.87;101834.13;4999935;28;51443;-48
2021/07/21 09:43:24;;;;;;;;;18.50;15.75;;;;;27.10;45.21;101828.56;5005091;28;51301;-48
2021/07/21 09:45:51;;;;;;;;;19.50;19.25;;;;;27.11;45.36;101833.03;4999346;28;51395;-48
2021/07/21 09:48:20;;;;;;;;;20.00;19.50;;;;;27.12;44.91;101834.72;4998044;28;52010;-48
2021/07/21 09:50:48;;;;;;;;;20.00;18.25;;;;;27.13;45.09;101840.03;5002857;28;51179;-49
2021/07/21 09:53:15;;;;;;;;;21.00;21.00;;;;;27.14;44.54;101826.97;5005068;28;51269;-47
2021/07/21 09:55:43;;;;;;;;;22.00;20.75;;;;;27.15;44.63;101832.28;5003658;28;51256;-47
2021/07/21 09:58:10;;;;;;;;;22.00;19.75;;;;;27.15;44.65;101831.44;5007358;28;52176;-49
2021/07/21 10:00:36;;;;;;;;;19.75;19.00;;;;;27.15;45.18;101829.50;4996330;28;51025;-49
2021/07/21 10:03:21;;;;;;;;;18.75;17.25;;;;;27.17;45.11;101834.81;5003992;28;51175;-56
2021/07/21 10:05:56;;;;;;;;;23.75;23.25;;;;;27.17;44.56;101824.53;5017574;28;51487;-50
2021/07/21 10:08:29;;;;;;;;;27.00;20.75;;;;;27.17;45.12;101821.75;5003508;28;51538;-50
2021/07/21 10:10:55;;;;;;;;;20.00;18.75;;;;;27.18;45.17;101820.66;5005037;28;51041;-48
2021/07/21 10:13:21;;;;;;;;;22.75;21.25;;;;;27.18;45.19;101826.22;5001896;28;51124;-53
2021/07/21 10:15:48;;;;;;;;;19.50;18.50;;;;;27.20;44.79;101831.53;4997768;28;50907;-48
2021/07/21 10:18:17;;;;;;;;;23.25;19.50;;;;;27.21;45.16;101830.47;4995848;28;51847;-48
2021/07/21 10:20:44;;;;;;;;;18.00;16.50;;;;;27.21;44.66;101828.53;4999591;28;52692;-46
2021/07/21 10:23:12;;;;;;;;;21.00;18.00;;;;;27.22;45.24;101829.38;5002495;28;51180;-46
2021/07/21 10:25:38;;;;;;;;;23.50;20.50;;;;;27.22;45.09;101821.88;5008550;28;51134;-47
2021/07/21 10:28:05;;;;;;;;;22.00;19.50;;;;;27.23;44.74;101823.56;4996638;28;52798;-47
2021/07/21 10:30:32;;;;;;;;;24.75;20.75;;;;;27.23;44.73;101825.50;5005410;28;51144;-52
2021/07/21 10:32:59;;;;;;;;;19.25;17.25;;;;;27.24;45.10;101822.47;5000492;28;51173;-49
2021/07/21 10:35:26;;;;;;;;;18.50;16.75;;;;;27.25;44.69;101823.31;4998970;28;51156;-49
2021/07/21 10:37:52;;;;;;;;;17.25;15.50;;;;;27.25;45.20;101821.38;5002020;28;51912;-47
2021/07/21 10:40:21;;;;;;;;;16.50;16.25;;;;;27.25;45.05;101826.09;5004899;28;51698;-48
2021/07/21 10:42:51;;;;;;;;;20.50;17.00;;;;;27.25;44.55;101821.38;5002934;28;51140;-45
2021/07/21 10:45:18;;;;;;;;;20.75;19.50;;;;;27.26;44.43;101825.00;5000936;28;51530;-47
2021/07/21 10:47:54;;;;;;;;;38.75;32.00;;;;;27.26;44.91;101814.72;4997986;28;51687;-48
2021/07/21 10:51:00;;;;;;;;;59.75;47.00;;;;;27.27;45.35;101819.19;5000078;28;51707;-49
2021/07/21 10:53:24;;;;;;;;;55.00;44.50;;;;;27.29;44.59;101819.78;5000533;28;51180;-49
2021/07/21 10:59:11;;;;;;;;;46.50;37.75;;;;;27.28;45.16;101820.88;5005424;28;51089;-47
2021/07/21 11:01:26;;;;;;;;;46.50;35.75;;;;;27.31;45.07;101814.84;5014227;28;51130;-46
2021/07/21 11:04:03;;;;;;;;;45.50;35.50;;;;;27.31;45.15;101814.00;5004799;28;51136;-49
2021/07/21 11:06:49;;;;;;;;;40.00;34.50;;;;;27.33;45.32;101817.38;5006750;28;51101;-47
2021/07/21 11:09:39;;;;;;;;;44.50;36.75;;;;;27.33;44.63;101811.81;5008449;28;52102;-48
2021/07/21 11:12:04;;;;;;;;;40.75;35.75;;;;;27.35;45.00;101806.84;5009776;28;51667;-50
2021/07/21 11:14:35;;;;;;;;;37.75;35.50;;;;;27.35;44.88;101806.00;5008769;28;51076;-50
2021/07/21 11:17:06;;;;;;;;;50.50;40.00;;;;;27.35;45.09;101812.41;5013925;28;51092;-51
2021/07/21 11:19:42;;;;;;;;;48.00;39.25;;;;;27.35;44.96;101804.06;5014099;28;51951;-50